createdAt,value
2019-04-22T00:01:57.875Z,33.80
2019-04-22T00:04:42.150Z,23.57
2019-04-22T00:07:26.791Z,31.00
2019-04-22T00:09:59.471Z,32.50
2019-04-22T00:12:27.164Z,25.70
2019-04-22T00:15:02.270Z,27.27
2019-04-22T00:17:42.740Z,27.63
2019-04-22T00:20:06.082Z,31.23
2019-04-22T00:22:32.138Z,29.90
2019-04-22T00:25:11.865Z,28.25
2019-04-22T00:27:40.592Z,32.37
2019-04-22T00:30:18.154Z,24.10
2019-04-22T00:32:58.974Z,25.40
2019-04-22T00:35:29.282Z,29.83
2019-04-22T00:38:08.932Z,24.60
2019-04-22T00:43:06.790Z,39.23
2019-04-22T00:48:16.422Z,24.00
2019-04-22T00:50:51.881Z,27.17
2019-04-22T00:53:25.291Z,25.70
2019-04-22T00:58:41.174Z,24.87
2019-04-22T01:04:05.594Z,24.18
2019-04-22T01:06:20.415Z,25.97
2019-04-22T01:13:59.366Z,24.53
2019-04-22T01:16:29.666Z,24.93
2019-04-22T01:19:05.329Z,25.33
2019-04-22T01:21:36.594Z,25.37
2019-04-22T01:24:05.982Z,25.93
2019-04-22T01:26:29.917Z,23.63
2019-04-22T01:29:00.819Z,23.77
2019-04-22T01:31:23.938Z,21.90
2019-04-22T01:34:08.204Z,24.65
2019-04-22T01:36:45.699Z,23.87
2019-04-22T01:39:21.290Z,22.40
2019-04-22T01:44:31.246Z,24.80
2019-04-22T01:46:57.834Z,25.17
2019-04-22T01:49:33.920Z,24.00
2019-04-22T01:52:17.121Z,27.33
2019-04-22T01:54:44.459Z,25.90
2019-04-22T01:57:04.969Z,24.23
2019-04-22T01:59:32.978Z,25.97
2019-04-22T02:02:09.897Z,24.70
2019-04-22T02:04:49.268Z,25.40
2019-04-22T02:07:16.506Z,25.77
2019-04-22T02:09:51.943Z,27.70
2019-04-22T02:12:19.903Z,27.27
2019-04-22T02:14:50.428Z,27.27
2019-04-22T02:17:26.485Z,27.57
2019-04-22T02:19:59.104Z,25.27
2019-04-22T02:22:42.849Z,28.20
2019-04-22T02:25:06.989Z,33.57
2019-04-22T02:30:05.407Z,35.70
2019-04-22T02:32:52.639Z,28.07
2019-04-22T02:35:38.353Z,29.37
2019-04-22T02:38:07.481Z,29.90
2019-04-22T02:40:17.308Z,32.40
2019-04-22T02:42:51.749Z,30.67
2019-04-22T02:45:28.705Z,33.43
2019-04-22T02:47:58.568Z,40.27
2019-04-22T02:50:46.170Z,34.67
2019-04-22T02:53:03.711Z,31.57
2019-04-22T02:55:34.907Z,34.80
2019-04-22T02:58:06.177Z,34.10
2019-04-22T03:00:45.876Z,48.77
2019-04-22T03:03:25.489Z,31.80
2019-04-22T03:05:56.645Z,35.30
2019-04-22T03:08:25.344Z,36.00
2019-04-22T03:18:44.072Z,37.83
2019-04-22T03:21:03.603Z,33.47
2019-04-22T03:23:45.401Z,31.80
2019-04-22T03:26:27.468Z,34.37
2019-04-22T03:28:49.834Z,29.93
2019-04-22T03:31:59.019Z,29.20
2019-04-22T03:39:27.710Z,33.57
2019-04-22T03:41:57.329Z,29.83
2019-04-22T03:46:53.401Z,33.13
2019-04-22T03:49:29.159Z,42.40
2019-04-22T03:51:56.831Z,33.50
2019-04-22T03:54:29.598Z,29.90
2019-04-22T03:57:32.275Z,32.90
2019-04-22T04:04:36.009Z,31.33
2019-04-22T04:07:14.987Z,29.47
2019-04-22T04:14:50.859Z,33.38
2019-04-22T04:17:09.204Z,28.83
2019-04-22T04:20:03.268Z,27.17
2019-04-22T04:22:33.875Z,24.60
2019-04-22T04:27:42.770Z,32.08
2019-04-22T04:32:41.644Z,27.73
2019-04-22T04:37:52.434Z,34.03
2019-04-22T04:40:11.689Z,32.33
2019-04-22T05:01:44.901Z,28.07
2019-04-22T05:04:25.520Z,27.77
2019-04-22T05:06:59.617Z,33.30
2019-04-22T05:09:40.856Z,26.07
2019-04-22T05:12:19.528Z,33.30
2019-04-22T05:17:07.695Z,23.42
2019-04-22T05:19:57.439Z,26.42
2019-04-22T05:22:13.392Z,25.90
2019-04-22T05:25:06.326Z,25.95
2019-04-22T05:27:28.139Z,25.15
2019-04-22T05:30:07.551Z,36.85
2019-04-22T05:32:24.644Z,31.55
2019-04-22T05:34:59.750Z,25.88
2019-04-22T05:37:35.648Z,28.75
2019-04-22T05:40:08.791Z,25.55
2019-04-22T05:42:30.980Z,21.97
2019-04-22T05:47:46.357Z,25.77
2019-04-22T05:50:13.182Z,23.45
2019-04-22T05:52:51.317Z,30.55
2019-04-22T05:55:30.455Z,23.50
2019-04-22T05:57:59.674Z,24.02
2019-04-22T06:03:21.010Z,26.55
2019-04-22T06:05:47.305Z,31.82
2019-04-22T06:08:33.670Z,25.25
2019-04-22T06:11:04.392Z,16.37
2019-04-22T06:13:27.641Z,18.07
2019-04-22T06:16:07.326Z,25.62
2019-04-22T06:18:33.442Z,17.42
2019-04-22T06:21:12.165Z,16.45
2019-04-22T06:26:26.766Z,11.53
2019-04-22T06:28:48.433Z,11.33
2019-04-22T06:31:20.969Z,10.53
2019-04-22T06:33:58.180Z,7.80
2019-04-22T06:36:24.457Z,9.35
2019-04-22T06:39:05.153Z,12.30
2019-04-22T06:41:34.877Z,10.40
2019-04-22T06:44:16.184Z,10.70
2019-04-22T06:46:41.877Z,10.00
2019-04-22T06:49:19.411Z,10.45
2019-04-22T06:51:45.333Z,11.03
2019-04-22T06:54:14.058Z,11.53
2019-04-22T06:56:49.148Z,13.60
2019-04-22T06:59:21.646Z,16.67
2019-04-22T07:04:30.212Z,14.90
2019-04-22T07:07:02.229Z,15.30
2019-04-22T07:12:09.474Z,11.20
2019-04-22T07:14:47.200Z,10.23
2019-04-22T07:17:14.926Z,13.40
2019-04-22T07:19:43.676Z,12.07
2019-04-22T07:24:53.892Z,13.03
2019-04-22T07:27:27.832Z,12.90
2019-04-22T07:30:09.302Z,13.30
2019-04-22T07:33:01.124Z,12.77
2019-04-22T07:40:11.854Z,11.77
2019-04-22T07:42:45.151Z,15.37
2019-04-22T07:45:15.522Z,16.47
2019-04-22T07:47:58.991Z,18.47
2019-04-22T07:50:37.434Z,16.87
2019-04-22T07:52:51.435Z,9.50
2019-04-22T07:55:29.501Z,11.13
2019-04-22T07:57:58.270Z,10.57
2019-04-22T08:00:39.154Z,12.63
2019-04-22T08:03:19.482Z,9.70
2019-04-22T08:05:51.946Z,12.67
2019-04-22T08:10:57.924Z,10.87
2019-04-22T08:13:25.203Z,10.53
2019-04-22T08:15:58.179Z,13.33
2019-04-22T08:18:36.733Z,10.60
2019-04-22T08:21:07.013Z,10.23
2019-04-22T08:26:05.008Z,12.07
2019-04-22T08:28:45.926Z,10.17
2019-04-22T08:31:14.500Z,10.17
2019-04-22T08:33:47.097Z,13.57
2019-04-22T08:36:26.013Z,11.03
2019-04-22T08:38:54.245Z,12.53
2019-04-22T08:46:38.614Z,12.70
2019-04-22T08:49:04.540Z,10.43
2019-04-22T08:51:32.570Z,12.10
2019-04-22T08:54:12.155Z,13.40
2019-04-22T09:01:56.824Z,12.67
2019-04-22T09:04:23.237Z,16.13
2019-04-22T09:07:10.458Z,13.63
2019-04-22T09:09:42.441Z,12.57
2019-04-22T09:12:11.318Z,11.50
2019-04-22T09:14:42.186Z,12.40
2019-04-22T09:17:17.304Z,9.47
2019-04-22T09:19:40.510Z,11.80
2019-04-22T09:22:26.276Z,11.50
2019-04-22T09:24:48.942Z,11.63
2019-04-22T09:27:24.862Z,12.07
2019-04-22T09:30:15.100Z,16.73
2019-04-22T09:32:31.771Z,15.57
2019-04-22T09:34:58.956Z,12.73
2019-04-22T09:37:34.555Z,14.90
2019-04-22T09:40:13.861Z,11.33
2019-04-22T09:42:39.636Z,13.43
2019-04-22T09:45:21.786Z,12.27
2019-04-22T09:50:22.355Z,12.33
2019-04-22T09:52:51.581Z,12.20
2019-04-22T09:55:17.964Z,12.27
2019-04-22T09:57:53.037Z,12.40
2019-04-22T10:00:22.968Z,11.87
2019-04-22T10:05:29.419Z,10.53
2019-04-22T10:08:17.814Z,13.03
2019-04-22T10:10:42.867Z,11.37
2019-04-22T10:13:18.945Z,11.47
2019-04-22T10:15:46.877Z,11.30
2019-04-22T10:18:20.344Z,11.83
2019-04-22T10:20:54.131Z,13.20
2019-04-22T10:23:24.970Z,13.43
2019-04-22T10:26:00.791Z,10.97
2019-04-22T10:28:38.458Z,11.43
2019-04-22T10:31:14.938Z,11.80
2019-04-22T10:33:38.151Z,11.83
2019-04-22T10:35:49.656Z,8.53
2019-04-22T10:38:20.412Z,10.07
2019-04-22T10:40:52.462Z,9.20
2019-04-22T10:43:23.268Z,11.23
2019-04-22T10:45:54.496Z,9.70
2019-04-22T10:48:26.185Z,10.67
2019-04-22T10:50:56.886Z,10.70
2019-04-22T10:53:27.413Z,10.43
2019-04-22T10:55:58.853Z,11.23
2019-04-22T10:58:30.713Z,14.03
2019-04-22T11:01:01.465Z,11.07
2019-04-22T11:03:33.236Z,14.83
2019-04-22T11:06:05.519Z,11.28
2019-04-22T11:08:43.489Z,16.13
2019-04-22T11:11:21.428Z,10.73
2019-04-22T11:13:41.875Z,11.60
2019-04-22T11:16:13.815Z,11.17
2019-04-22T11:18:45.439Z,14.23
2019-04-22T11:21:16.145Z,10.67
2019-04-22T11:23:48.393Z,13.77
2019-04-22T11:26:34.621Z,10.03
2019-04-22T11:28:55.886Z,10.63
2019-04-22T11:31:28.275Z,13.98
2019-04-22T11:33:58.620Z,11.53
2019-04-22T11:36:30.798Z,10.63
2019-04-22T11:39:05.403Z,9.53
2019-04-22T11:41:33.905Z,10.00
2019-04-22T11:44:05.461Z,12.60
2019-04-22T11:46:36.034Z,11.47
2019-04-22T11:49:07.830Z,12.40
2019-04-22T11:51:40.239Z,12.77
2019-04-22T11:54:12.272Z,13.57
2019-04-22T11:56:49.493Z,12.27
2019-04-22T11:59:29.028Z,12.00
2019-04-22T12:02:02.734Z,10.07
2019-04-22T12:04:36.001Z,11.93
2019-04-22T12:07:08.800Z,10.87
2019-04-22T12:09:41.899Z,12.27
2019-04-22T12:12:13.932Z,10.33
2019-04-22T12:14:45.865Z,9.77
2019-04-22T12:17:17.995Z,9.83
2019-04-22T12:19:50.358Z,10.83
2019-04-22T12:22:29.278Z,12.50
2019-04-22T12:25:12.442Z,17.27
2019-04-22T12:27:43.179Z,13.53
2019-04-22T12:30:16.751Z,14.10
2019-04-22T12:32:48.563Z,10.00
2019-04-22T12:35:19.788Z,10.23
2019-04-22T12:37:55.684Z,10.10
2019-04-22T12:40:33.777Z,11.10
2019-04-22T12:42:55.447Z,10.03
2019-04-22T12:45:36.413Z,10.10
2019-04-22T12:48:08.706Z,10.43
2019-04-22T12:50:43.451Z,11.93
2019-04-22T12:53:14.950Z,10.23
2019-04-22T12:55:43.895Z,10.27
2019-04-22T12:58:15.971Z,14.73
2019-04-22T13:00:46.414Z,11.10
2019-04-22T13:03:18.454Z,15.30
2019-04-22T13:05:51.434Z,11.60
2019-04-22T13:08:27.589Z,15.57
2019-04-22T13:11:06.828Z,11.77
2019-04-22T13:13:34.818Z,12.07
2019-04-22T13:16:08.984Z,14.97
2019-04-22T13:19:00.136Z,13.90
2019-04-22T13:21:31.204Z,9.73
2019-04-22T13:24:06.969Z,12.63
2019-04-22T13:26:38.099Z,11.60
2019-04-22T13:29:10.717Z,9.93
2019-04-22T13:31:42.526Z,11.57
2019-04-22T13:34:21.400Z,10.93
2019-04-22T13:36:46.723Z,11.03
2019-04-22T13:39:18.699Z,12.60
2019-04-22T13:41:54.535Z,11.70
2019-04-22T13:44:22.972Z,13.30
2019-04-22T13:47:11.618Z,10.97
2019-04-22T13:50:01.104Z,10.30
2019-04-22T13:54:53.237Z,11.50
2019-04-22T13:57:19.709Z,12.53
2019-04-22T13:59:40.964Z,11.17
2019-04-22T14:02:26.691Z,10.93
2019-04-22T14:04:59.172Z,13.47
2019-04-22T14:07:30.746Z,10.90
2019-04-22T14:10:02.627Z,12.07
2019-04-22T14:12:34.633Z,9.83
2019-04-22T14:15:07.715Z,10.73
2019-04-22T14:17:38.949Z,12.37
2019-04-22T14:20:10.925Z,11.27
2019-04-22T14:22:41.600Z,11.00
2019-04-22T14:25:14.512Z,11.00
2019-04-22T14:27:51.379Z,11.23
2019-04-22T14:30:20.785Z,14.50
2019-04-22T14:32:54.082Z,11.90
2019-04-22T14:35:25.285Z,12.93
2019-04-22T14:37:56.445Z,10.03
2019-04-22T14:40:28.723Z,11.60
2019-04-22T14:43:23.115Z,14.17
2019-04-22T14:46:05.527Z,18.80
2019-04-22T14:48:27.344Z,15.63
2019-04-22T14:50:56.272Z,14.50
2019-04-22T14:53:26.281Z,10.87
2019-04-22T14:55:40.342Z,9.70
2019-04-22T14:58:12.957Z,11.87
2019-04-22T15:00:45.744Z,11.77
2019-04-22T15:03:17.519Z,12.30
2019-04-22T15:05:48.304Z,16.27
2019-04-22T15:08:19.211Z,15.37
2019-04-22T15:10:51.647Z,18.27
2019-04-22T15:13:23.318Z,12.47
2019-04-22T15:15:58.645Z,16.47
2019-04-22T15:18:31.996Z,12.03
2019-04-22T15:21:04.960Z,15.37
2019-04-22T15:23:35.519Z,15.43
2019-04-22T15:26:06.519Z,14.10
2019-04-22T15:28:37.513Z,13.13
2019-04-22T15:31:09.130Z,18.27
2019-04-22T15:33:41.530Z,19.73
2019-04-22T15:36:12.167Z,17.50
2019-04-22T15:38:42.602Z,20.77
2019-04-22T15:41:12.941Z,18.10
2019-04-22T15:43:43.670Z,17.53
2019-04-22T15:46:14.282Z,17.10
2019-04-22T15:48:46.203Z,15.17
2019-04-22T15:51:18.549Z,17.17
2019-04-22T15:53:57.923Z,19.83
2019-04-22T15:56:28.661Z,18.83
2019-04-22T15:58:59.743Z,16.13
2019-04-22T16:01:34.006Z,15.53
2019-04-22T16:04:02.822Z,20.73
2019-04-22T16:06:34.790Z,17.70
2019-04-22T16:09:13.226Z,19.50
2019-04-22T16:11:43.892Z,18.10
2019-04-22T16:14:23.955Z,15.95
2019-04-22T16:16:48.435Z,18.03
2019-04-22T16:19:19.131Z,20.80
2019-04-22T16:21:56.675Z,15.83
2019-04-22T16:24:40.459Z,15.83
2019-04-22T16:27:14.139Z,21.40
2019-04-22T16:29:47.385Z,15.80
2019-04-22T16:32:17.285Z,14.03
2019-04-22T16:34:48.094Z,22.50
2019-04-22T16:37:18.876Z,17.13
2019-04-22T16:39:51.910Z,17.52
2019-04-22T16:42:30.173Z,20.90
2019-04-22T16:44:55.366Z,20.67
2019-04-22T16:47:25.978Z,19.87
2019-04-22T16:49:57.449Z,23.00
2019-04-22T16:52:28.237Z,21.60
2019-04-22T16:54:59.051Z,24.57
2019-04-22T16:57:30.033Z,17.63
2019-04-22T17:00:00.754Z,25.87
2019-04-22T17:02:50.655Z,24.87
2019-04-22T17:05:38.806Z,27.90
2019-04-22T17:08:10.185Z,24.70
2019-04-22T17:10:41.923Z,30.10
2019-04-22T17:13:19.328Z,28.87
2019-04-22T17:15:45.146Z,28.97
2019-04-22T17:18:17.214Z,33.85
2019-04-22T17:20:50.803Z,31.87
2019-04-22T17:23:21.635Z,38.83
2019-04-22T17:25:52.609Z,35.47
2019-04-22T17:28:25.719Z,61.83
2019-04-22T17:30:57.528Z,40.77
2019-04-22T17:33:28.834Z,44.67
2019-04-22T17:36:03.352Z,61.47
2019-04-22T17:38:44.333Z,61.97
2019-04-22T17:41:20.857Z,50.92
2019-04-22T17:44:09.339Z,48.03
2019-04-22T17:46:30.422Z,41.80
2019-04-22T17:49:12.282Z,43.77
2019-04-22T17:51:47.727Z,39.80
2019-04-22T17:54:17.100Z,37.03
2019-04-22T17:56:48.585Z,37.87
2019-04-22T17:59:20.381Z,37.83
2019-04-22T18:01:54.056Z,35.80
2019-04-22T18:04:07.173Z,33.57
2019-04-22T18:07:07.738Z,39.70
2019-04-22T18:09:57.695Z,31.40
2019-04-22T18:12:12.029Z,37.13
2019-04-22T18:17:10.933Z,41.90
2019-04-22T18:19:39.831Z,41.57
2019-04-22T18:22:09.408Z,50.77
2019-04-22T18:24:43.945Z,44.97
2019-04-22T18:27:36.020Z,45.10
2019-04-22T18:29:51.789Z,44.57
2019-04-22T18:36:01.168Z,44.63
2019-04-22T18:38:44.022Z,46.13
2019-04-22T18:41:08.084Z,38.83
2019-04-22T18:43:42.431Z,37.27
2019-04-22T18:46:14.623Z,49.43
2019-04-22T18:48:48.044Z,44.07
2019-04-22T18:51:24.424Z,45.17
2019-04-22T18:54:00.212Z,42.97
2019-04-22T18:56:32.491Z,37.23
2019-04-22T18:58:55.860Z,37.43
2019-04-22T19:01:17.771Z,48.23
2019-04-22T19:04:00.293Z,37.40
2019-04-22T19:09:17.175Z,40.60
2019-04-22T19:12:03.162Z,57.37
2019-04-22T19:14:37.259Z,55.73
2019-04-22T19:17:10.904Z,46.80
2019-04-22T19:19:38.998Z,48.60
2019-04-22T19:21:57.775Z,58.97
2019-04-22T19:24:29.047Z,46.33
2019-04-22T19:27:09.193Z,48.17
2019-04-22T19:29:51.345Z,51.50
2019-04-22T19:32:24.431Z,49.93
2019-04-22T19:34:56.917Z,81.37
2019-04-22T19:37:28.786Z,49.20
2019-04-22T19:40:10.514Z,43.07
2019-04-22T19:42:43.241Z,53.63
2019-04-22T19:45:09.034Z,61.80
2019-04-22T19:47:41.987Z,51.80
2019-04-22T19:50:19.194Z,50.27
2019-04-22T19:52:43.429Z,48.90
2019-04-22T19:55:26.583Z,53.80
2019-04-22T19:57:52.575Z,52.87
2019-04-22T20:00:21.412Z,51.27
2019-04-22T20:03:21.741Z,52.03
2019-04-22T20:05:52.559Z,51.30
2019-04-22T20:08:25.136Z,51.00
2019-04-22T20:10:59.159Z,63.67
2019-04-22T20:13:36.762Z,54.03
2019-04-22T20:15:55.283Z,65.70
2019-04-22T20:18:46.649Z,52.17
2019-04-22T20:21:14.278Z,44.53
2019-04-22T20:23:32.943Z,47.33
2019-04-22T20:26:07.338Z,66.17
2019-04-22T20:28:49.206Z,54.60
2019-04-22T20:31:19.375Z,60.80
2019-04-22T20:34:01.287Z,46.13
2019-04-22T20:36:47.542Z,54.80
2019-04-22T20:38:56.118Z,43.43
2019-04-22T20:41:30.400Z,50.75
2019-04-22T20:44:07.468Z,44.23
2019-04-22T20:46:37.181Z,51.63
2019-04-22T20:49:15.201Z,42.73
2019-04-22T20:51:53.178Z,55.30
2019-04-22T20:54:12.158Z,47.67
2019-04-22T20:56:37.142Z,46.90
2019-04-22T20:59:23.153Z,35.53
2019-04-22T21:01:49.694Z,37.50
2019-04-22T21:04:11.492Z,42.53
2019-04-22T21:06:51.513Z,42.77
2019-04-22T21:09:28.495Z,33.60
2019-04-22T21:11:59.439Z,46.30
2019-04-22T21:14:30.678Z,32.00
2019-04-22T21:17:10.179Z,38.97
2019-04-22T21:19:47.921Z,38.25
2019-04-22T21:22:08.134Z,36.63
2019-04-22T21:24:40.186Z,32.73
2019-04-22T21:27:13.913Z,35.20
2019-04-22T21:29:39.871Z,31.97
2019-04-22T21:32:17.536Z,31.03
2019-04-22T21:34:55.474Z,44.67
2019-04-22T21:37:26.444Z,40.20
2019-04-22T21:39:49.687Z,39.37
2019-04-22T21:42:28.499Z,42.53
2019-04-22T21:44:52.728Z,31.07
2019-04-22T21:47:34.967Z,28.70
2019-04-22T21:50:24.134Z,35.30
2019-04-22T21:52:35.828Z,34.87
2019-04-22T21:55:10.198Z,39.70
2019-04-22T21:58:05.158Z,36.67
2019-04-22T22:00:43.523Z,33.50
2019-04-22T22:03:14.574Z,36.90
2019-04-22T22:05:30.301Z,34.67
2019-04-22T22:08:21.584Z,37.57
2019-04-22T22:10:45.019Z,38.57
2019-04-22T22:13:16.922Z,36.07
2019-04-22T22:15:47.947Z,41.33
2019-04-22T22:18:12.277Z,43.20
2019-04-22T22:21:17.108Z,46.85
2019-04-22T22:25:53.749Z,45.07
2019-04-22T22:28:45.033Z,39.87
2019-04-22T22:31:10.362Z,36.70
2019-04-22T22:33:40.418Z,43.37
2019-04-22T22:36:00.762Z,38.73
2019-04-22T22:38:31.217Z,37.97
2019-04-22T22:40:52.001Z,45.03
2019-04-22T22:43:31.955Z,41.60
2019-04-22T22:46:09.456Z,44.80
2019-04-22T22:48:51.367Z,44.10
2019-04-22T22:51:30.673Z,52.27
2019-04-22T22:53:51.241Z,54.63
2019-04-22T22:56:29.220Z,55.33
2019-04-22T22:58:58.705Z,53.60
2019-04-22T23:01:31.765Z,52.70
2019-04-22T23:04:05.010Z,58.83
2019-04-22T23:06:38.301Z,64.40
2019-04-22T23:09:05.784Z,64.53
2019-04-22T23:11:52.045Z,52.07
2019-04-22T23:14:07.166Z,60.23
2019-04-22T23:16:31.532Z,50.87
2019-04-22T23:19:06.390Z,52.13
2019-04-22T23:21:41.968Z,59.70
2019-04-22T23:24:28.168Z,52.33
2019-04-22T23:27:14.637Z,65.17
2019-04-22T23:29:43.486Z,56.87
2019-04-22T23:32:18.578Z,57.83
2019-04-22T23:34:56.113Z,54.03
2019-04-22T23:37:23.210Z,54.67
2019-04-22T23:40:09.974Z,50.57
2019-04-22T23:42:34.975Z,50.10
2019-04-22T23:45:12.398Z,46.93
2019-04-22T23:47:32.427Z,43.07
2019-04-22T23:50:17.979Z,47.37
2019-04-22T23:52:47.992Z,37.77
2019-04-22T23:55:20.440Z,36.43
2019-04-22T23:57:50.421Z,33.27
